sensor_id;sensor_type;location;lat;lon;timestamp;temperature;humidity
14475;DHT22;7323;50.848;4.334;2022-07-23T00:00:00;18.00;76.40
14475;DHT22;7323;50.848;4.334;2022-07-23T00:02:26;18.00;76.50
14475;DHT22;7323;50.848;4.334;2022-07-23T00:04:55;18.00;80.00
14475;DHT22;7323;50.848;4.334;2022-07-23T00:07:20;18.00;80.10
14475;DHT22;7323;50.848;4.334;2022-07-23T00:09:46;18.00;80.70
14475;DHT22;7323;50.848;4.334;2022-07-23T00:12:12;18.00;81.40
14475;DHT22;7323;50.848;4.334;2022-07-23T00:14:38;17.90;83.30
14475;DHT22;7323;50.848;4.334;2022-07-23T00:17:03;17.90;85.10
14475;DHT22;7323;50.848;4.334;2022-07-23T00:19:29;18.00;85.80
14475;DHT22;7323;50.848;4.334;2022-07-23T00:21:55;17.90;86.70
14475;DHT22;7323;50.848;4.334;2022-07-23T00:24:21;17.80;90.70
14475;DHT22;7323;50.848;4.334;2022-07-23T00:26:47;17.80;91.00
14475;DHT22;7323;50.848;4.334;2022-07-23T00:29:12;17.70;91.20
14475;DHT22;7323;50.848;4.334;2022-07-23T00:31:38;17.80;90.80
14475;DHT22;7323;50.848;4.334;2022-07-23T00:34:04;17.80;90.10
14475;DHT22;7323;50.848;4.334;2022-07-23T00:36:29;17.80;90.40
14475;DHT22;7323;50.848;4.334;2022-07-23T00:38:57;17.70;90.90
14475;DHT22;7323;50.848;4.334;2022-07-23T00:41:23;17.70;91.10
14475;DHT22;7323;50.848;4.334;2022-07-23T00:43:48;17.70;91.70
14475;DHT22;7323;50.848;4.334;2022-07-23T00:46:22;17.60;92.00
14475;DHT22;7323;50.848;4.334;2022-07-23T00:48:48;17.60;92.60
14475;DHT22;7323;50.848;4.334;2022-07-23T00:51:18;17.60;92.90
14475;DHT22;7323;50.848;4.334;2022-07-23T00:53:44;17.60;93.40
14475;DHT22;7323;50.848;4.334;2022-07-23T00:56:10;17.50;92.90
14475;DHT22;7323;50.848;4.334;2022-07-23T00:58:39;17.50;93.60
14475;DHT22;7323;50.848;4.334;2022-07-23T01:01:05;17.50;93.80
14475;DHT22;7323;50.848;4.334;2022-07-23T01:03:31;17.50;93.80
14475;DHT22;7323;50.848;4.334;2022-07-23T01:05:57;17.50;94.00
14475;DHT22;7323;50.848;4.334;2022-07-23T01:08:24;17.50;93.80
14475;DHT22;7323;50.848;4.334;2022-07-23T01:10:50;17.40;94.20
14475;DHT22;7323;50.848;4.334;2022-07-23T01:13:17;17.40;94.50
14475;DHT22;7323;50.848;4.334;2022-07-23T01:15:42;17.40;94.60
14475;DHT22;7323;50.848;4.334;2022-07-23T01:18:09;17.40;94.50
14475;DHT22;7323;50.848;4.334;2022-07-23T01:20:38;17.40;94.40
14475;DHT22;7323;50.848;4.334;2022-07-23T01:23:05;17.40;94.60
14475;DHT22;7323;50.848;4.334;2022-07-23T01:25:30;17.30;95.50
14475;DHT22;7323;50.848;4.334;2022-07-23T01:27:58;17.30;95.20
14475;DHT22;7323;50.848;4.334;2022-07-23T01:30:24;17.30;95.30
14475;DHT22;7323;50.848;4.334;2022-07-23T01:32:50;17.30;94.70
14475;DHT22;7323;50.848;4.334;2022-07-23T01:35:17;17.30;94.70
14475;DHT22;7323;50.848;4.334;2022-07-23T01:37:43;17.30;95.60
14475;DHT22;7323;50.848;4.334;2022-07-23T01:40:09;17.30;94.70
14475;DHT22;7323;50.848;4.334;2022-07-23T01:42:35;17.20;94.10
14475;DHT22;7323;50.848;4.334;2022-07-23T01:45:02;17.20;93.40
14475;DHT22;7323;50.848;4.334;2022-07-23T01:47:27;17.20;94.10
14475;DHT22;7323;50.848;4.334;2022-07-23T01:49:53;17.20;94.40
14475;DHT22;7323;50.848;4.334;2022-07-23T01:52:19;17.10;93.90
14475;DHT22;7323;50.848;4.334;2022-07-23T01:54:44;17.10;94.50
14475;DHT22;7323;50.848;4.334;2022-07-23T01:57:10;17.10;94.80
14475;DHT22;7323;50.848;4.334;2022-07-23T01:59:40;17.10;94.20
14475;DHT22;7323;50.848;4.334;2022-07-23T02:02:07;17.10;94.90
14475;DHT22;7323;50.848;4.334;2022-07-23T02:04:36;17.20;94.30
14475;DHT22;7323;50.848;4.334;2022-07-23T02:10:15;17.20;93.40
14475;DHT22;7323;50.848;4.334;2022-07-23T02:12:41;17.10;92.60
14475;DHT22;7323;50.848;4.334;2022-07-23T02:15:07;17.10;93.70
14475;DHT22;7323;50.848;4.334;2022-07-23T02:17:32;17.10;93.50
14475;DHT22;7323;50.848;4.334;2022-07-23T02:19:58;17.10;93.50
14475;DHT22;7323;50.848;4.334;2022-07-23T02:22:24;17.00;94.10
14475;DHT22;7323;50.848;4.334;2022-07-23T02:24:49;17.00;94.40
14475;DHT22;7323;50.848;4.334;2022-07-23T02:27:16;17.00;95.30
14475;DHT22;7323;50.848;4.334;2022-07-23T02:29:42;17.00;95.30
14475;DHT22;7323;50.848;4.334;2022-07-23T02:32:10;17.00;94.60
14475;DHT22;7323;50.848;4.334;2022-07-23T02:34:47;17.00;94.90
14475;DHT22;7323;50.848;4.334;2022-07-23T02:37:16;16.90;95.00
14475;DHT22;7323;50.848;4.334;2022-07-23T02:39:42;16.90;94.90
14475;DHT22;7323;50.848;4.334;2022-07-23T02:42:08;16.90;95.60
14475;DHT22;7323;50.848;4.334;2022-07-23T02:44:36;16.90;96.20
14475;DHT22;7323;50.848;4.334;2022-07-23T02:47:03;17.00;96.10
14475;DHT22;7323;50.848;4.334;2022-07-23T02:49:36;17.00;95.90
14475;DHT22;7323;50.848;4.334;2022-07-23T02:52:08;17.00;96.10
14475;DHT22;7323;50.848;4.334;2022-07-23T02:54:36;16.80;96.20
14475;DHT22;7323;50.848;4.334;2022-07-23T02:57:03;16.80;96.90
14475;DHT22;7323;50.848;4.334;2022-07-23T02:59:29;16.80;97.60
14475;DHT22;7323;50.848;4.334;2022-07-23T03:01:55;17.00;97.10
14475;DHT22;7323;50.848;4.334;2022-07-23T03:04:21;17.10;96.20
14475;DHT22;7323;50.848;4.334;2022-07-23T03:06:46;17.20;94.20
14475;DHT22;7323;50.848;4.334;2022-07-23T03:09:13;17.40;92.40
14475;DHT22;7323;50.848;4.334;2022-07-23T03:11:39;17.50;90.60
14475;DHT22;7323;50.848;4.334;2022-07-23T03:14:05;17.40;87.10
14475;DHT22;7323;50.848;4.334;2022-07-23T03:16:32;17.50;88.50
14475;DHT22;7323;50.848;4.334;2022-07-23T03:18:57;17.60;84.60
14475;DHT22;7323;50.848;4.334;2022-07-23T03:21:24;17.80;83.50
14475;DHT22;7323;50.848;4.334;2022-07-23T03:23:50;17.80;78.60
14475;DHT22;7323;50.848;4.334;2022-07-23T03:26:16;17.80;77.60
14475;DHT22;7323;50.848;4.334;2022-07-23T03:28:42;17.80;76.20
14475;DHT22;7323;50.848;4.334;2022-07-23T03:31:07;17.70;77.30
14475;DHT22;7323;50.848;4.334;2022-07-23T03:33:34;17.60;79.50
14475;DHT22;7323;50.848;4.334;2022-07-23T03:35:59;17.60;80.80
14475;DHT22;7323;50.848;4.334;2022-07-23T03:38:28;17.50;79.00
14475;DHT22;7323;50.848;4.334;2022-07-23T03:40:54;17.50;80.10
14475;DHT22;7323;50.848;4.334;2022-07-23T03:43:20;17.40;83.60
14475;DHT22;7323;50.848;4.334;2022-07-23T03:45:45;17.30;87.70
14475;DHT22;7323;50.848;4.334;2022-07-23T03:48:11;17.30;87.80
14475;DHT22;7323;50.848;4.334;2022-07-23T03:50:37;17.20;90.10
14475;DHT22;7323;50.848;4.334;2022-07-23T03:53:03;17.30;89.60
14475;DHT22;7323;50.848;4.334;2022-07-23T03:55:28;17.10;91.20
14475;DHT22;7323;50.848;4.334;2022-07-23T03:57:54;17.00;91.80
14475;DHT22;7323;50.848;4.334;2022-07-23T04:00:20;16.80;93.70
14475;DHT22;7323;50.848;4.334;2022-07-23T04:02:45;16.70;95.20
14475;DHT22;7323;50.848;4.334;2022-07-23T04:05:11;16.70;96.10
14475;DHT22;7323;50.848;4.334;2022-07-23T04:07:37;16.70;96.40
14475;DHT22;7323;50.848;4.334;2022-07-23T04:10:03;16.70;96.80
14475;DHT22;7323;50.848;4.334;2022-07-23T04:12:28;16.70;96.20
14475;DHT22;7323;50.848;4.334;2022-07-23T04:14:55;16.80;95.90
14475;DHT22;7323;50.848;4.334;2022-07-23T04:17:22;16.80;95.00
14475;DHT22;7323;50.848;4.334;2022-07-23T04:19:48;17.00;95.20
14475;DHT22;7323;50.848;4.334;2022-07-23T04:22:13;16.90;94.30
14475;DHT22;7323;50.848;4.334;2022-07-23T04:24:39;16.90;94.90
14475;DHT22;7323;50.848;4.334;2022-07-23T04:27:05;17.00;93.80
14475;DHT22;7323;50.848;4.334;2022-07-23T04:29:31;17.00;92.60
14475;DHT22;7323;50.848;4.334;2022-07-23T04:31:57;17.10;91.50
14475;DHT22;7323;50.848;4.334;2022-07-23T04:34:23;17.00;91.50
14475;DHT22;7323;50.848;4.334;2022-07-23T04:36:52;17.00;91.80
14475;DHT22;7323;50.848;4.334;2022-07-23T04:39:18;17.00;92.00
14475;DHT22;7323;50.848;4.334;2022-07-23T04:41:43;16.90;92.60
14475;DHT22;7323;50.848;4.334;2022-07-23T04:44:09;17.00;93.30
14475;DHT22;7323;50.848;4.334;2022-07-23T04:46:35;17.00;92.30
14475;DHT22;7323;50.848;4.334;2022-07-23T04:49:02;17.00;91.70
14475;DHT22;7323;50.848;4.334;2022-07-23T04:51:27;17.00;90.60
14475;DHT22;7323;50.848;4.334;2022-07-23T04:53:54;17.10;90.50
14475;DHT22;7323;50.848;4.334;2022-07-23T04:56:21;17.10;90.20
14475;DHT22;7323;50.848;4.334;2022-07-23T04:58:48;17.20;90.50
14475;DHT22;7323;50.848;4.334;2022-07-23T05:01:15;17.20;89.90
14475;DHT22;7323;50.848;4.334;2022-07-23T05:03:41;17.40;86.70
14475;DHT22;7323;50.848;4.334;2022-07-23T05:06:06;17.40;83.60
14475;DHT22;7323;50.848;4.334;2022-07-23T05:08:32;17.40;83.40
14475;DHT22;7323;50.848;4.334;2022-07-23T05:10:58;17.60;81.50
14475;DHT22;7323;50.848;4.334;2022-07-23T05:13:26;17.60;77.10
14475;DHT22;7323;50.848;4.334;2022-07-23T05:15:52;17.60;76.50
14475;DHT22;7323;50.848;4.334;2022-07-23T05:18:21;17.70;75.00
14475;DHT22;7323;50.848;4.334;2022-07-23T05:20:46;17.70;72.40
14475;DHT22;7323;50.848;4.334;2022-07-23T05:23:12;17.70;74.80
14475;DHT22;7323;50.848;4.334;2022-07-23T05:25:38;17.70;73.40
14475;DHT22;7323;50.848;4.334;2022-07-23T05:28:03;17.60;78.40
14475;DHT22;7323;50.848;4.334;2022-07-23T05:30:29;17.60;82.80
14475;DHT22;7323;50.848;4.334;2022-07-23T05:33:09;17.70;82.20
14475;DHT22;7323;50.848;4.334;2022-07-23T05:35:34;17.90;77.10
14475;DHT22;7323;50.848;4.334;2022-07-23T05:38:00;17.90;71.20
14475;DHT22;7323;50.848;4.334;2022-07-23T05:40:26;18.00;69.70
14475;DHT22;7323;50.848;4.334;2022-07-23T05:42:51;18.00;71.20
14475;DHT22;7323;50.848;4.334;2022-07-23T05:45:17;18.10;68.40
14475;DHT22;7323;50.848;4.334;2022-07-23T05:47:48;18.30;66.60
14475;DHT22;7323;50.848;4.334;2022-07-23T05:50:20;18.50;61.10
14475;DHT22;7323;50.848;4.334;2022-07-23T05:52:48;18.50;57.60
14475;DHT22;7323;50.848;4.334;2022-07-23T05:55:36;18.40;55.30
14475;DHT22;7323;50.848;4.334;2022-07-23T05:58:03;18.60;54.60
14475;DHT22;7323;50.848;4.334;2022-07-23T06:00:29;18.60;49.70
14475;DHT22;7323;50.848;4.334;2022-07-23T06:02:55;18.60;51.00
14475;DHT22;7323;50.848;4.334;2022-07-23T06:05:21;18.60;51.70
14475;DHT22;7323;50.848;4.334;2022-07-23T06:07:47;18.50;53.30
14475;DHT22;7323;50.848;4.334;2022-07-23T06:10:13;18.70;54.00
14475;DHT22;7323;50.848;4.334;2022-07-23T06:12:40;18.60;51.10
14475;DHT22;7323;50.848;4.334;2022-07-23T06:15:06;18.60;49.40
14475;DHT22;7323;50.848;4.334;2022-07-23T06:17:32;18.60;51.50
14475;DHT22;7323;50.848;4.334;2022-07-23T06:19:58;18.60;50.50
14475;DHT22;7323;50.848;4.334;2022-07-23T06:22:24;18.50;51.40
14475;DHT22;7323;50.848;4.334;2022-07-23T06:24:50;18.60;53.50
14475;DHT22;7323;50.848;4.334;2022-07-23T06:27:17;18.60;50.70
14475;DHT22;7323;50.848;4.334;2022-07-23T06:29:43;18.70;48.90
14475;DHT22;7323;50.848;4.334;2022-07-23T06:32:09;18.60;52.30
14475;DHT22;7323;50.848;4.334;2022-07-23T06:34:35;18.80;50.50
14475;DHT22;7323;50.848;4.334;2022-07-23T06:37:01;19.00;43.20
14475;DHT22;7323;50.848;4.334;2022-07-23T06:39:27;19.10;38.20
14475;DHT22;7323;50.848;4.334;2022-07-23T06:41:59;19.20;34.90
14475;DHT22;7323;50.848;4.334;2022-07-23T06:44:27;19.40;29.90
14475;DHT22;7323;50.848;4.334;2022-07-23T06:46:52;19.40;28.00
14475;DHT22;7323;50.848;4.334;2022-07-23T06:49:19;19.40;26.60
14475;DHT22;7323;50.848;4.334;2022-07-23T06:51:45;19.50;25.90
14475;DHT22;7323;50.848;4.334;2022-07-23T06:54:11;19.50;24.40
14475;DHT22;7323;50.848;4.334;2022-07-23T06:56:36;19.50;27.30
14475;DHT22;7323;50.848;4.334;2022-07-23T06:59:03;19.60;23.40
14475;DHT22;7323;50.848;4.334;2022-07-23T07:01:28;19.50;21.60
14475;DHT22;7323;50.848;4.334;2022-07-23T07:03:54;19.60;23.80
14475;DHT22;7323;50.848;4.334;2022-07-23T07:06:20;19.50;22.90
14475;DHT22;7323;50.848;4.334;2022-07-23T07:08:46;19.50;24.40
14475;DHT22;7323;50.848;4.334;2022-07-23T07:11:11;19.80;22.00
14475;DHT22;7323;50.848;4.334;2022-07-23T07:13:38;19.90;18.20
14475;DHT22;7323;50.848;4.334;2022-07-23T07:16:04;19.90;13.90
14475;DHT22;7323;50.848;4.334;2022-07-23T07:18:29;20.00;9.50
14475;DHT22;7323;50.848;4.334;2022-07-23T07:20:56;20.10;8.60
14475;DHT22;7323;50.848;4.334;2022-07-23T07:23:22;20.20;2.50
14475;DHT22;7323;50.848;4.334;2022-07-23T07:25:48;20.30;1.00
14475;DHT22;7323;50.848;4.334;2022-07-23T07:28:14;20.60;1.00
14475;DHT22;7323;50.848;4.334;2022-07-23T07:30:40;20.50;1.00
14475;DHT22;7323;50.848;4.334;2022-07-23T07:33:05;20.50;1.00
14475;DHT22;7323;50.848;4.334;2022-07-23T07:35:31;20.60;1.00
14475;DHT22;7323;50.848;4.334;2022-07-23T07:37:58;20.50;1.00
14475;DHT22;7323;50.848;4.334;2022-07-23T07:40:26;20.40;1.00
14475;DHT22;7323;50.848;4.334;2022-07-23T07:42:53;20.40;1.00
14475;DHT22;7323;50.848;4.334;2022-07-23T07:45:22;20.50;1.00
14475;DHT22;7323;50.848;4.334;2022-07-23T07:47:48;20.70;1.00
14475;DHT22;7323;50.848;4.334;2022-07-23T07:50:15;20.80;1.00
14475;DHT22;7323;50.848;4.334;2022-07-23T07:52:40;21.00;1.00
14475;DHT22;7323;50.848;4.334;2022-07-23T07:55:10;21.00;1.00
14475;DHT22;7323;50.848;4.334;2022-07-23T07:57:37;21.00;1.00
14475;DHT22;7323;50.848;4.334;2022-07-23T08:00:04;21.20;1.00
14475;DHT22;7323;50.848;4.334;2022-07-23T08:02:43;21.50;1.00
14475;DHT22;7323;50.848;4.334;2022-07-23T08:05:09;21.60;1.00
14475;DHT22;7323;50.848;4.334;2022-07-23T08:07:35;21.50;1.00
14475;DHT22;7323;50.848;4.334;2022-07-23T08:10:01;21.50;1.00
14475;DHT22;7323;50.848;4.334;2022-07-23T08:12:38;21.30;1.00
14475;DHT22;7323;50.848;4.334;2022-07-23T08:15:05;21.40;1.00
14475;DHT22;7323;50.848;4.334;2022-07-23T08:17:31;21.50;1.00
14475;DHT22;7323;50.848;4.334;2022-07-23T08:19:58;21.60;1.00
14475;DHT22;7323;50.848;4.334;2022-07-23T08:22:25;21.90;1.00
14475;DHT22;7323;50.848;4.334;2022-07-23T08:25:07;22.00;1.00
14475;DHT22;7323;50.848;4.334;2022-07-23T08:27:33;22.10;1.00
14475;DHT22;7323;50.848;4.334;2022-07-23T08:29:58;22.00;1.00
14475;DHT22;7323;50.848;4.334;2022-07-23T08:32:24;22.00;1.00
14475;DHT22;7323;50.848;4.334;2022-07-23T08:34:50;21.90;1.00
14475;DHT22;7323;50.848;4.334;2022-07-23T08:37:15;22.10;1.00
14475;DHT22;7323;50.848;4.334;2022-07-23T08:39:41;22.20;1.00
14475;DHT22;7323;50.848;4.334;2022-07-23T08:42:08;22.00;1.00
14475;DHT22;7323;50.848;4.334;2022-07-23T08:44:35;21.70;1.00
14475;DHT22;7323;50.848;4.334;2022-07-23T08:47:04;22.00;1.00
14475;DHT22;7323;50.848;4.334;2022-07-23T08:49:30;22.00;1.00
14475;DHT22;7323;50.848;4.334;2022-07-23T08:51:56;22.30;1.00
14475;DHT22;7323;50.848;4.334;2022-07-23T08:54:22;22.30;1.00
14475;DHT22;7323;50.848;4.334;2022-07-23T08:56:48;22.50;1.00
14475;DHT22;7323;50.848;4.334;2022-07-23T08:59:14;22.50;1.00
14475;DHT22;7323;50.848;4.334;2022-07-23T09:01:40;22.50;1.00
14475;DHT22;7323;50.848;4.334;2022-07-23T09:04:06;22.50;1.00
14475;DHT22;7323;50.848;4.334;2022-07-23T09:06:33;22.50;1.00
14475;DHT22;7323;50.848;4.334;2022-07-23T09:09:19;22.60;1.00
14475;DHT22;7323;50.848;4.334;2022-07-23T09:12:08;22.50;1.00
14475;DHT22;7323;50.848;4.334;2022-07-23T09:14:42;22.80;1.00
14475;DHT22;7323;50.848;4.334;2022-07-23T09:17:15;23.00;1.00
14475;DHT22;7323;50.848;4.334;2022-07-23T09:19:41;23.00;1.00
14475;DHT22;7323;50.848;4.334;2022-07-23T09:25:11;22.70;1.00
14475;DHT22;7323;50.848;4.334;2022-07-23T09:30:22;22.80;1.00
14475;DHT22;7323;50.848;4.334;2022-07-23T09:33:11;23.00;1.00
14475;DHT22;7323;50.848;4.334;2022-07-23T09:35:53;23.10;1.00
14475;DHT22;7323;50.848;4.334;2022-07-23T09:38:34;23.10;1.00
14475;DHT22;7323;50.848;4.334;2022-07-23T09:41:10;23.00;1.00
14475;DHT22;7323;50.848;4.334;2022-07-23T09:43:36;23.00;1.00
14475;DHT22;7323;50.848;4.334;2022-07-23T09:48:52;23.20;1.00
14475;DHT22;7323;50.848;4.334;2022-07-23T09:51:18;23.20;99.90
14475;DHT22;7323;50.848;4.334;2022-07-23T09:54:02;23.00;99.90
14475;DHT22;7323;50.848;4.334;2022-07-23T09:56:28;23.10;99.90
14475;DHT22;7323;50.848;4.334;2022-07-23T09:58:56;23.10;99.90
14475;DHT22;7323;50.848;4.334;2022-07-23T10:01:36;23.10;99.90
14475;DHT22;7323;50.848;4.334;2022-07-23T10:04:02;23.20;99.90
14475;DHT22;7323;50.848;4.334;2022-07-23T10:06:29;23.10;99.90
14475;DHT22;7323;50.848;4.334;2022-07-23T10:08:58;23.20;99.90
14475;DHT22;7323;50.848;4.334;2022-07-23T10:11:26;23.40;99.90
14475;DHT22;7323;50.848;4.334;2022-07-23T10:13:54;23.80;99.90
14475;DHT22;7323;50.848;4.334;2022-07-23T10:16:21;24.10;99.90
14475;DHT22;7323;50.848;4.334;2022-07-23T10:18:51;24.30;65.60
14475;DHT22;7323;50.848;4.334;2022-07-23T10:21:45;24.10;1.00
14475;DHT22;7323;50.848;4.334;2022-07-23T10:24:21;24.00;1.00
14475;DHT22;7323;50.848;4.334;2022-07-23T10:27:13;24.20;1.00
14475;DHT22;7323;50.848;4.334;2022-07-23T10:29:52;24.40;1.00
14475;DHT22;7323;50.848;4.334;2022-07-23T10:38:06;25.00;1.00
14475;DHT22;7323;50.848;4.334;2022-07-23T10:40:33;24.80;1.00
14475;DHT22;7323;50.848;4.334;2022-07-23T10:43:00;24.20;34.80
14475;DHT22;7323;50.848;4.334;2022-07-23T10:45:33;24.10;99.90
14475;DHT22;7323;50.848;4.334;2022-07-23T10:50:43;24.40;99.90
14475;DHT22;7323;50.848;4.334;2022-07-23T10:53:15;24.80;99.90
14475;DHT22;7323;50.848;4.334;2022-07-23T10:55:50;24.80;1.00
14475;DHT22;7323;50.848;4.334;2022-07-23T10:58:46;25.00;1.00
14475;DHT22;7323;50.848;4.334;2022-07-23T11:01:37;25.10;99.90
14475;DHT22;7323;50.848;4.334;2022-07-23T11:04:04;25.10;86.50
14475;DHT22;7323;50.848;4.334;2022-07-23T11:09:42;25.30;1.00
14475;DHT22;7323;50.848;4.334;2022-07-23T11:17:24;25.30;99.90
14475;DHT22;7323;50.848;4.334;2022-07-23T11:22:50;25.50;1.00
14475;DHT22;7323;50.848;4.334;2022-07-23T11:27:51;25.40;1.00
14475;DHT22;7323;50.848;4.334;2022-07-23T11:32:52;25.30;99.90
14475;DHT22;7323;50.848;4.334;2022-07-23T11:37:49;25.00;99.90
14475;DHT22;7323;50.848;4.334;2022-07-23T11:40:16;24.90;99.90
14475;DHT22;7323;50.848;4.334;2022-07-23T11:43:08;24.90;99.90
14475;DHT22;7323;50.848;4.334;2022-07-23T11:45:43;24.90;99.90
14475;DHT22;7323;50.848;4.334;2022-07-23T11:50:42;25.30;1.00
14475;DHT22;7323;50.848;4.334;2022-07-23T11:53:08;25.20;1.00
14475;DHT22;7323;50.848;4.334;2022-07-23T11:55:34;25.30;1.00
14475;DHT22;7323;50.848;4.334;2022-07-23T11:58:00;25.20;99.90
14475;DHT22;7323;50.848;4.334;2022-07-23T12:00:28;25.20;99.90
14475;DHT22;7323;50.848;4.334;2022-07-23T12:02:58;25.10;99.90
14475;DHT22;7323;50.848;4.334;2022-07-23T12:05:31;25.30;99.90
14475;DHT22;7323;50.848;4.334;2022-07-23T12:07:58;25.20;99.90
14475;DHT22;7323;50.848;4.334;2022-07-23T12:10:39;25.10;99.90
14475;DHT22;7323;50.848;4.334;2022-07-23T12:13:07;25.20;99.90
14475;DHT22;7323;50.848;4.334;2022-07-23T12:15:41;25.30;99.90
14475;DHT22;7323;50.848;4.334;2022-07-23T12:18:11;25.50;99.90
14475;DHT22;7323;50.848;4.334;2022-07-23T12:20:42;25.40;1.00
14475;DHT22;7323;50.848;4.334;2022-07-23T12:23:11;25.50;99.90
14475;DHT22;7323;50.848;4.334;2022-07-23T12:25:40;25.60;1.00
14475;DHT22;7323;50.848;4.334;2022-07-23T12:28:17;25.90;99.90
14475;DHT22;7323;50.848;4.334;2022-07-23T12:30:50;26.20;1.00
14475;DHT22;7323;50.848;4.334;2022-07-23T12:35:50;26.80;1.00
14475;DHT22;7323;50.848;4.334;2022-07-23T12:38:20;26.90;1.00
14475;DHT22;7323;50.848;4.334;2022-07-23T12:40:57;27.00;1.00
14475;DHT22;7323;50.848;4.334;2022-07-23T12:43:27;27.00;99.90
14475;DHT22;7323;50.848;4.334;2022-07-23T12:46:07;27.20;99.90
14475;DHT22;7323;50.848;4.334;2022-07-23T12:51:19;27.30;99.90
14475;DHT22;7323;50.848;4.334;2022-07-23T12:53:50;27.10;99.90
14475;DHT22;7323;50.848;4.334;2022-07-23T12:56:22;27.10;99.90
14475;DHT22;7323;50.848;4.334;2022-07-23T13:04:05;27.00;99.90
14475;DHT22;7323;50.848;4.334;2022-07-23T13:06:36;27.20;1.00
14475;DHT22;7323;50.848;4.334;2022-07-23T13:09:06;27.10;99.90
14475;DHT22;7323;50.848;4.334;2022-07-23T13:11:33;26.70;99.90
14475;DHT22;7323;50.848;4.334;2022-07-23T13:13:59;26.70;99.90
14475;DHT22;7323;50.848;4.334;2022-07-23T13:16:28;26.70;1.00
14475;DHT22;7323;50.848;4.334;2022-07-23T13:18:55;26.70;1.00
14475;DHT22;7323;50.848;4.334;2022-07-23T13:21:58;27.00;1.00
14475;DHT22;7323;50.848;4.334;2022-07-23T13:24:27;27.40;99.90
14475;DHT22;7323;50.848;4.334;2022-07-23T13:26:52;27.70;99.90
14475;DHT22;7323;50.848;4.334;2022-07-23T13:29:20;27.80;99.90
14475;DHT22;7323;50.848;4.334;2022-07-23T13:31:46;27.60;99.90
14475;DHT22;7323;50.848;4.334;2022-07-23T13:34:13;27.60;99.90
14475;DHT22;7323;50.848;4.334;2022-07-23T13:36:39;27.50;99.90
14475;DHT22;7323;50.848;4.334;2022-07-23T13:39:07;27.80;99.90
14475;DHT22;7323;50.848;4.334;2022-07-23T13:41:37;28.10;1.00
14475;DHT22;7323;50.848;4.334;2022-07-23T13:44:04;28.00;1.00
14475;DHT22;7323;50.848;4.334;2022-07-23T13:46:30;28.10;1.00
14475;DHT22;7323;50.848;4.334;2022-07-23T13:48:56;28.30;1.00
14475;DHT22;7323;50.848;4.334;2022-07-23T13:51:21;28.30;99.90
14475;DHT22;7323;50.848;4.334;2022-07-23T13:53:49;27.80;1.00
14475;DHT22;7323;50.848;4.334;2022-07-23T13:56:15;27.30;99.90
14475;DHT22;7323;50.848;4.334;2022-07-23T13:58:40;27.20;1.00
14475;DHT22;7323;50.848;4.334;2022-07-23T14:01:06;27.30;1.00
14475;DHT22;7323;50.848;4.334;2022-07-23T14:03:33;27.20;47.70
14475;DHT22;7323;50.848;4.334;2022-07-23T14:05:58;27.20;22.80
14475;DHT22;7323;50.848;4.334;2022-07-23T14:08:24;27.40;1.00
14475;DHT22;7323;50.848;4.334;2022-07-23T14:10:50;27.40;1.00
14475;DHT22;7323;50.848;4.334;2022-07-23T14:13:16;27.30;1.00
14475;DHT22;7323;50.848;4.334;2022-07-23T14:15:42;27.20;99.90
14475;DHT22;7323;50.848;4.334;2022-07-23T14:18:08;27.40;99.90
14475;DHT22;7323;50.848;4.334;2022-07-23T14:20:34;27.50;1.00
14475;DHT22;7323;50.848;4.334;2022-07-23T14:22:59;27.40;1.00
14475;DHT22;7323;50.848;4.334;2022-07-23T14:25:26;27.30;1.00
14475;DHT22;7323;50.848;4.334;2022-07-23T14:27:51;27.30;99.90
14475;DHT22;7323;50.848;4.334;2022-07-23T14:30:19;27.30;1.00
14475;DHT22;7323;50.848;4.334;2022-07-23T14:32:45;27.40;1.00
14475;DHT22;7323;50.848;4.334;2022-07-23T14:35:10;27.80;99.90
14475;DHT22;7323;50.848;4.334;2022-07-23T14:37:36;28.10;99.90
14475;DHT22;7323;50.848;4.334;2022-07-23T14:40:02;28.30;1.00
14475;DHT22;7323;50.848;4.334;2022-07-23T14:42:28;28.20;1.00
14475;DHT22;7323;50.848;4.334;2022-07-23T14:44:55;28.00;1.00
14475;DHT22;7323;50.848;4.334;2022-07-23T14:47:21;27.90;1.00
14475;DHT22;7323;50.848;4.334;2022-07-23T14:49:50;27.90;1.00
14475;DHT22;7323;50.848;4.334;2022-07-23T14:52:15;28.20;1.00
14475;DHT22;7323;50.848;4.334;2022-07-23T14:54:42;28.30;1.00
14475;DHT22;7323;50.848;4.334;2022-07-23T14:57:08;28.50;1.00
14475;DHT22;7323;50.848;4.334;2022-07-23T14:59:35;28.80;99.90
14475;DHT22;7323;50.848;4.334;2022-07-23T15:02:01;28.70;99.90
14475;DHT22;7323;50.848;4.334;2022-07-23T15:04:27;28.40;99.90
14475;DHT22;7323;50.848;4.334;2022-07-23T15:06:53;28.50;99.90
14475;DHT22;7323;50.848;4.334;2022-07-23T15:09:19;28.50;99.90
14475;DHT22;7323;50.848;4.334;2022-07-23T15:11:44;28.40;99.90
14475;DHT22;7323;50.848;4.334;2022-07-23T15:14:10;28.30;99.90
14475;DHT22;7323;50.848;4.334;2022-07-23T15:16:36;28.20;99.90
14475;DHT22;7323;50.848;4.334;2022-07-23T15:19:03;28.10;1.00
14475;DHT22;7323;50.848;4.334;2022-07-23T15:21:29;27.70;1.00
14475;DHT22;7323;50.848;4.334;2022-07-23T15:23:59;27.60;1.00
14475;DHT22;7323;50.848;4.334;2022-07-23T15:26:28;27.40;15.50
14475;DHT22;7323;50.848;4.334;2022-07-23T15:28:55;27.30;99.90
14475;DHT22;7323;50.848;4.334;2022-07-23T15:31:21;27.50;99.90
14475;DHT22;7323;50.848;4.334;2022-07-23T15:33:47;27.80;1.00
14475;DHT22;7323;50.848;4.334;2022-07-23T15:36:13;27.90;1.00
14475;DHT22;7323;50.848;4.334;2022-07-23T15:38:38;28.20;1.00
14475;DHT22;7323;50.848;4.334;2022-07-23T15:41:04;28.10;1.00
14475;DHT22;7323;50.848;4.334;2022-07-23T15:43:30;28.10;1.00
14475;DHT22;7323;50.848;4.334;2022-07-23T15:45:56;28.30;1.00
14475;DHT22;7323;50.848;4.334;2022-07-23T15:48:28;28.50;1.00
14475;DHT22;7323;50.848;4.334;2022-07-23T15:50:56;28.60;99.90
14475;DHT22;7323;50.848;4.334;2022-07-23T15:53:22;28.60;99.90
14475;DHT22;7323;50.848;4.334;2022-07-23T15:55:48;28.50;99.90
14475;DHT22;7323;50.848;4.334;2022-07-23T15:58:15;28.00;99.90
14475;DHT22;7323;50.848;4.334;2022-07-23T16:00:41;27.90;1.00
14475;DHT22;7323;50.848;4.334;2022-07-23T16:03:07;28.20;1.00
14475;DHT22;7323;50.848;4.334;2022-07-23T16:05:33;28.40;99.90
14475;DHT22;7323;50.848;4.334;2022-07-23T16:08:01;28.70;99.90
14475;DHT22;7323;50.848;4.334;2022-07-23T16:10:27;29.10;56.20
14475;DHT22;7323;50.848;4.334;2022-07-23T16:12:52;29.30;1.00
14475;DHT22;7323;50.848;4.334;2022-07-23T16:15:18;29.50;1.00
14475;DHT22;7323;50.848;4.334;2022-07-23T16:17:44;29.40;1.00
14475;DHT22;7323;50.848;4.334;2022-07-23T16:20:11;29.40;1.00
14475;DHT22;7323;50.848;4.334;2022-07-23T16:22:40;29.30;1.00
14475;DHT22;7323;50.848;4.334;2022-07-23T16:25:12;28.80;1.00
14475;DHT22;7323;50.848;4.334;2022-07-23T16:27:39;28.40;1.00
14475;DHT22;7323;50.848;4.334;2022-07-23T16:30:06;28.20;99.90
14475;DHT22;7323;50.848;4.334;2022-07-23T16:32:32;28.40;99.90
14475;DHT22;7323;50.848;4.334;2022-07-23T16:34:58;28.50;90.20
14475;DHT22;7323;50.848;4.334;2022-07-23T16:37:24;28.50;37.70
14475;DHT22;7323;50.848;4.334;2022-07-23T16:39:50;28.50;99.90
14475;DHT22;7323;50.848;4.334;2022-07-23T16:42:17;28.70;15.80
14475;DHT22;7323;50.848;4.334;2022-07-23T16:44:44;29.10;1.00
14475;DHT22;7323;50.848;4.334;2022-07-23T16:47:11;29.10;1.00